createdAt,value
2022-10-22T00:02:27.793Z,100.00
2022-10-22T00:04:57.031Z,100.00
2022-10-22T00:07:24.276Z,100.00
2022-10-22T00:09:50.948Z,100.00
2022-10-22T00:12:17.985Z,100.00
2022-10-22T00:14:44.680Z,100.00
2022-10-22T00:17:11.869Z,100.00
2022-10-22T00:19:39.836Z,100.00
2022-10-22T00:22:07.061Z,100.00
2022-10-22T00:24:34.812Z,100.00
2022-10-22T00:27:02.457Z,100.00
2022-10-22T00:29:29.500Z,100.00
2022-10-22T00:34:28.703Z,100.00
2022-10-22T00:36:55.465Z,100.00
2022-10-22T00:39:24.436Z,100.00
2022-10-22T00:41:52.671Z,100.00
2022-10-22T00:44:56.924Z,100.00
2022-10-22T00:47:25.480Z,100.00
2022-10-22T00:49:54.292Z,100.00
2022-10-22T00:52:22.625Z,100.00
2022-10-22T00:54:50.646Z,100.00
2022-10-22T00:57:19.410Z,100.00
2022-10-22T00:59:48.177Z,100.00
2022-10-22T01:02:15.575Z,100.00
2022-10-22T01:04:42.580Z,100.00
2022-10-22T01:07:18.013Z,100.00
2022-10-22T01:10:17.218Z,100.00
2022-10-22T01:13:02.289Z,100.00
2022-10-22T01:15:32.752Z,100.00
2022-10-22T01:18:10.847Z,100.00
2022-10-22T01:21:00.783Z,100.00
2022-10-22T01:23:36.670Z,100.00
2022-10-22T01:26:26.302Z,100.00
2022-10-22T01:29:17.417Z,100.00
2022-10-22T01:31:58.780Z,100.00
2022-10-22T01:34:27.258Z,100.00
2022-10-22T01:36:55.746Z,100.00
2022-10-22T01:39:23.480Z,100.00
2022-10-22T01:41:50.211Z,100.00
2022-10-22T01:44:37.714Z,100.00
2022-10-22T01:47:31.384Z,100.00
2022-10-22T01:50:13.248Z,100.00
2022-10-22T01:52:57.667Z,100.00
2022-10-22T01:55:36.459Z,100.00
2022-10-22T01:58:10.150Z,100.00
2022-10-22T02:00:45.406Z,100.00
2022-10-22T02:03:32.738Z,100.00
2022-10-22T02:06:05.801Z,100.00
2022-10-22T02:08:35.400Z,100.00
2022-10-22T02:11:02.979Z,100.00
2022-10-22T02:13:38.543Z,100.00
2022-10-22T02:16:09.708Z,100.00
2022-10-22T02:18:40.334Z,100.00
2022-10-22T02:23:35.825Z,100.00
2022-10-22T02:26:14.450Z,100.00
2022-10-22T02:28:55.721Z,100.00
2022-10-22T02:31:28.324Z,100.00
2022-10-22T02:33:58.033Z,100.00
2022-10-22T02:36:25.417Z,100.00
2022-10-22T02:38:52.669Z,100.00
2022-10-22T02:41:20.342Z,100.00
2022-10-22T02:43:54.573Z,100.00
2022-10-22T02:46:22.412Z,100.00
2022-10-22T02:48:49.334Z,100.00
2022-10-22T02:51:16.201Z,100.00
2022-10-22T02:53:42.941Z,100.00
2022-10-22T02:56:10.095Z,100.00
2022-10-22T02:58:36.823Z,100.00
2022-10-22T03:01:03.654Z,100.00
2022-10-22T03:03:30.389Z,100.00
2022-10-22T03:05:57.146Z,100.00
2022-10-22T03:08:23.863Z,100.00
2022-10-22T03:10:50.550Z,100.00
2022-10-22T03:13:17.269Z,100.00
2022-10-22T03:15:43.925Z,100.00
2022-10-22T03:18:10.734Z,100.00
2022-10-22T03:20:37.400Z,100.00
2022-10-22T03:23:04.112Z,100.00
2022-10-22T03:25:34.460Z,100.00
2022-10-22T03:28:08.645Z,100.00
2022-10-22T03:30:35.313Z,100.00
2022-10-22T03:33:02.470Z,100.00
2022-10-22T03:35:29.185Z,100.00
2022-10-22T03:37:55.883Z,100.00
2022-10-22T03:40:22.953Z,100.00
2022-10-22T03:42:49.679Z,100.00
2022-10-22T03:45:16.552Z,100.00
2022-10-22T03:47:43.520Z,100.00
2022-10-22T03:50:11.044Z,100.00
2022-10-22T03:52:40.124Z,100.00
2022-10-22T03:55:07.512Z,100.00
2022-10-22T03:57:34.463Z,100.00
2022-10-22T04:00:01.180Z,100.00
2022-10-22T04:02:28.098Z,100.00
2022-10-22T04:04:54.725Z,100.00
2022-10-22T04:07:21.456Z,100.00
2022-10-22T04:09:48.115Z,100.00
2022-10-22T04:12:14.821Z,100.00
2022-10-22T04:14:41.497Z,100.00
2022-10-22T04:17:08.240Z,100.00
2022-10-22T04:19:35.723Z,100.00
2022-10-22T04:22:02.436Z,100.00
2022-10-22T04:24:31.284Z,100.00
2022-10-22T04:26:58.577Z,100.00
2022-10-22T04:29:25.699Z,100.00
2022-10-22T04:31:52.673Z,100.00
2022-10-22T04:34:19.313Z,100.00
2022-10-22T04:36:45.985Z,100.00
2022-10-22T04:39:12.650Z,100.00
2022-10-22T04:41:39.772Z,100.00
2022-10-22T04:44:09.902Z,100.00
2022-10-22T04:46:40.274Z,100.00
2022-10-22T04:49:06.965Z,100.00
2022-10-22T04:51:33.688Z,100.00
2022-10-22T04:54:00.427Z,100.00
2022-10-22T04:56:30.127Z,100.00
2022-10-22T04:58:59.471Z,100.00
2022-10-22T05:01:29.030Z,100.00
2022-10-22T05:03:57.925Z,100.00
2022-10-22T05:06:25.332Z,100.00
2022-10-22T05:09:00.903Z,100.00
2022-10-22T05:11:38.988Z,100.00
2022-10-22T05:14:07.739Z,100.00
2022-10-22T05:16:35.167Z,100.00
2022-10-22T05:19:02.637Z,100.00
2022-10-22T05:21:29.819Z,100.00
2022-10-22T05:23:59.655Z,100.00
2022-10-22T05:26:28.080Z,100.00
2022-10-22T05:28:55.161Z,100.00
2022-10-22T05:31:22.182Z,100.00
2022-10-22T05:33:48.996Z,100.00
2022-10-22T05:36:18.808Z,100.00
2022-10-22T05:38:45.984Z,100.00
2022-10-22T05:41:18.903Z,100.00
2022-10-22T05:43:46.241Z,100.00
2022-10-22T05:46:22.242Z,100.00
2022-10-22T05:49:00.699Z,100.00
2022-10-22T05:51:29.379Z,100.00
2022-10-22T05:53:58.485Z,100.00
2022-10-22T05:56:26.552Z,100.00
2022-10-22T05:58:53.885Z,100.00
2022-10-22T06:01:27.330Z,100.00
2022-10-22T06:03:56.016Z,100.00
2022-10-22T06:06:36.882Z,100.00
2022-10-22T06:09:06.501Z,100.00
2022-10-22T06:11:35.201Z,100.00
2022-10-22T06:14:02.966Z,100.00
2022-10-22T06:16:30.765Z,100.00
2022-10-22T06:19:01.869Z,100.00
2022-10-22T06:21:29.529Z,100.00
2022-10-22T06:23:57.094Z,100.00
2022-10-22T06:26:24.853Z,100.00
2022-10-22T06:28:51.764Z,100.00
2022-10-22T06:31:18.768Z,100.00
2022-10-22T06:33:45.444Z,100.00
2022-10-22T06:36:14.888Z,100.00
2022-10-22T06:38:42.612Z,100.00
2022-10-22T06:41:12.257Z,100.00
2022-10-22T06:43:39.398Z,100.00
2022-10-22T06:46:14.819Z,100.00
2022-10-22T06:48:55.387Z,100.00
2022-10-22T06:51:22.233Z,100.00
2022-10-22T06:53:49.314Z,100.00
2022-10-22T06:56:18.868Z,100.00
2022-10-22T06:58:50.314Z,100.00
2022-10-22T07:01:19.401Z,100.00
2022-10-22T07:03:46.873Z,100.00
2022-10-22T07:06:14.921Z,100.00
2022-10-22T07:08:42.503Z,100.00
2022-10-22T07:11:11.856Z,100.00
2022-10-22T07:13:39.226Z,100.00
2022-10-22T07:16:07.410Z,100.00
2022-10-22T07:18:35.291Z,100.00
2022-10-22T07:21:02.171Z,100.00
2022-10-22T07:23:30.573Z,100.00
2022-10-22T07:25:57.662Z,100.00
2022-10-22T07:28:24.407Z,100.00
2022-10-22T07:30:51.374Z,100.00
2022-10-22T07:33:18.177Z,100.00
2022-10-22T07:35:44.833Z,100.00
2022-10-22T07:38:11.605Z,100.00
2022-10-22T07:40:38.620Z,100.00
2022-10-22T07:43:06.819Z,100.00
2022-10-22T07:45:33.891Z,100.00
2022-10-22T07:48:00.773Z,100.00
2022-10-22T07:50:27.499Z,100.00
2022-10-22T07:52:56.073Z,100.00
2022-10-22T07:55:24.326Z,100.00
2022-10-22T07:57:51.141Z,100.00
2022-10-22T08:00:20.459Z,100.00
2022-10-22T08:02:49.832Z,100.00
2022-10-22T08:05:16.719Z,100.00
2022-10-22T08:07:43.601Z,100.00
2022-10-22T08:10:11.878Z,100.00
2022-10-22T08:12:39.991Z,100.00
2022-10-22T08:15:07.875Z,100.00
2022-10-22T08:17:34.658Z,100.00
2022-10-22T08:20:01.450Z,100.00
2022-10-22T08:22:28.197Z,100.00
2022-10-22T08:24:54.814Z,100.00
2022-10-22T08:27:21.910Z,100.00
2022-10-22T08:29:48.633Z,100.00
2022-10-22T08:32:15.576Z,100.00
2022-10-22T08:34:42.360Z,100.00
2022-10-22T08:37:10.546Z,100.00
2022-10-22T08:39:37.180Z,100.00
2022-10-22T08:42:26.997Z,100.00
2022-10-22T08:45:05.660Z,100.00
2022-10-22T08:48:00.058Z,100.00
2022-10-22T08:50:35.623Z,100.00
2022-10-22T08:53:06.904Z,100.00
2022-10-22T08:55:37.402Z,100.00
2022-10-22T08:58:17.609Z,100.00
2022-10-22T09:00:58.593Z,100.00
2022-10-22T09:03:50.655Z,100.00
2022-10-22T09:06:26.674Z,100.00
2022-10-22T09:08:54.867Z,100.00
2022-10-22T09:11:21.491Z,100.00
2022-10-22T09:13:49.446Z,100.00
2022-10-22T09:16:20.935Z,100.00
2022-10-22T09:19:02.658Z,100.00
2022-10-22T09:21:39.905Z,100.00
2022-10-22T09:24:12.564Z,100.00
2022-10-22T09:26:41.295Z,100.00
2022-10-22T09:29:17.724Z,100.00
2022-10-22T09:31:44.725Z,100.00
2022-10-22T09:34:15.453Z,100.00
2022-10-22T09:36:42.308Z,100.00
2022-10-22T09:39:26.504Z,100.00
2022-10-22T09:41:53.287Z,100.00
2022-10-22T09:44:20.648Z,100.00
2022-10-22T09:46:47.469Z,100.00
2022-10-22T09:49:17.890Z,100.00
2022-10-22T09:52:00.921Z,100.00
2022-10-22T09:54:38.577Z,100.00
2022-10-22T09:57:22.172Z,100.00
2022-10-22T09:59:50.710Z,100.00
2022-10-22T10:02:37.956Z,100.00
2022-10-22T10:05:06.699Z,100.00
2022-10-22T10:07:35.353Z,100.00
2022-10-22T10:10:03.077Z,100.00
2022-10-22T10:12:41.851Z,100.00
2022-10-22T10:15:24.644Z,100.00
2022-10-22T10:17:51.315Z,100.00
2022-10-22T10:20:24.267Z,100.00
2022-10-22T10:23:09.539Z,100.00
2022-10-22T10:25:42.001Z,100.00
2022-10-22T10:28:29.828Z,100.00
2022-10-22T10:31:19.600Z,100.00
2022-10-22T10:34:04.977Z,100.00
2022-10-22T10:36:58.885Z,100.00
2022-10-22T10:39:34.661Z,100.00
2022-10-22T10:42:27.075Z,100.00
2022-10-22T10:45:09.822Z,100.00
2022-10-22T10:48:08.253Z,100.00
2022-10-22T10:50:42.844Z,100.00
2022-10-22T10:53:44.515Z,99.72
2022-10-22T10:56:13.944Z,100.00
2022-10-22T10:58:43.391Z,98.44
2022-10-22T11:01:26.576Z,99.45
2022-10-22T11:04:19.308Z,99.30
2022-10-22T11:06:46.827Z,98.26
2022-10-22T11:09:51.007Z,98.52
2022-10-22T11:12:24.948Z,97.60
2022-10-22T11:15:25.655Z,98.10
2022-10-22T11:17:57.231Z,97.96
2022-10-22T11:20:50.870Z,98.52
2022-10-22T11:23:32.833Z,98.36
2022-10-22T11:26:01.750Z,96.83
2022-10-22T11:28:37.774Z,98.10
2022-10-22T11:31:10.604Z,96.94
2022-10-22T11:33:50.669Z,96.85
2022-10-22T11:36:21.191Z,96.84
2022-10-22T11:38:48.594Z,96.21
2022-10-22T11:41:23.860Z,95.84
2022-10-22T11:43:56.705Z,98.00
2022-10-22T11:46:23.345Z,97.16
2022-10-22T11:49:03.833Z,96.63
2022-10-22T11:51:37.477Z,97.23
2022-10-22T11:54:42.277Z,96.82
2022-10-22T11:57:15.077Z,95.35
2022-10-22T11:59:47.823Z,95.70
2022-10-22T12:03:03.759Z,97.24
2022-10-22T12:05:36.869Z,96.97
2022-10-22T12:08:16.710Z,97.31
2022-10-22T12:11:13.938Z,96.61
2022-10-22T12:13:58.813Z,95.82
2022-10-22T12:16:43.931Z,96.44
2022-10-22T12:19:29.390Z,96.09
2022-10-22T12:21:58.823Z,95.69
2022-10-22T12:24:29.441Z,95.07
2022-10-22T12:26:56.092Z,95.14
2022-10-22T12:29:24.011Z,93.88
2022-10-22T12:31:50.783Z,93.38
2022-10-22T12:34:26.560Z,92.95
2022-10-22T12:36:53.998Z,94.12
2022-10-22T12:39:25.195Z,93.77
2022-10-22T12:41:53.616Z,92.02
2022-10-22T12:44:20.768Z,93.49
2022-10-22T12:46:51.804Z,93.13
2022-10-22T12:49:24.889Z,93.00
2022-10-22T12:51:51.636Z,92.14
2022-10-22T12:54:25.275Z,92.33
2022-10-22T12:56:53.737Z,93.13
2022-10-22T12:59:26.832Z,92.98
2022-10-22T13:01:54.490Z,92.96
2022-10-22T13:04:21.199Z,93.51
2022-10-22T13:06:50.777Z,92.65
2022-10-22T13:09:23.879Z,92.62
2022-10-22T13:12:04.770Z,92.73
2022-10-22T13:14:34.211Z,94.00
2022-10-22T13:17:19.587Z,93.66
2022-10-22T13:19:49.099Z,94.36
2022-10-22T13:22:37.006Z,94.08
2022-10-22T13:25:28.646Z,94.40
2022-10-22T13:28:13.025Z,94.82
2022-10-22T13:30:51.312Z,94.84
2022-10-22T13:33:28.826Z,94.63
2022-10-22T13:35:56.848Z,95.27
2022-10-22T13:38:25.685Z,94.63
2022-10-22T13:40:52.755Z,94.88
2022-10-22T13:43:20.126Z,94.94
2022-10-22T13:45:55.136Z,95.48
2022-10-22T13:48:24.439Z,95.39
2022-10-22T13:50:52.310Z,96.07
2022-10-22T13:53:22.157Z,96.43
2022-10-22T13:55:50.255Z,96.64
2022-10-22T13:58:19.494Z,97.26
2022-10-22T14:00:49.444Z,97.64
2022-10-22T14:03:19.879Z,97.11
2022-10-22T14:05:47.765Z,97.17
2022-10-22T14:08:18.471Z,97.89
2022-10-22T14:10:45.248Z,97.61
2022-10-22T14:13:13.853Z,98.14
2022-10-22T14:15:41.692Z,98.02
2022-10-22T14:18:12.264Z,98.20
2022-10-22T14:20:42.057Z,98.14
2022-10-22T14:23:14.583Z,98.08
2022-10-22T14:25:41.975Z,97.74
2022-10-22T14:28:11.874Z,97.48
2022-10-22T14:30:39.351Z,97.66
2022-10-22T14:33:17.245Z,97.89
2022-10-22T14:35:43.920Z,97.96
2022-10-22T14:38:10.682Z,98.49
2022-10-22T14:40:41.879Z,98.58
2022-10-22T14:43:21.246Z,98.48
2022-10-22T14:45:48.394Z,98.95
2022-10-22T14:48:16.172Z,98.35
2022-10-22T14:50:44.270Z,98.48
2022-10-22T14:53:12.647Z,98.99
2022-10-22T14:55:40.695Z,99.01
2022-10-22T14:58:07.492Z,99.19
2022-10-22T15:00:36.853Z,99.00
2022-10-22T15:03:04.429Z,98.60
2022-10-22T15:05:31.454Z,98.79
2022-10-22T15:07:59.285Z,98.35
2022-10-22T15:10:26.498Z,98.82
2022-10-22T15:12:53.299Z,99.17
2022-10-22T15:15:22.702Z,98.77
2022-10-22T15:17:50.478Z,99.44
2022-10-22T15:20:17.252Z,99.29
2022-10-22T15:22:45.317Z,98.96
2022-10-22T15:25:13.581Z,98.99
2022-10-22T15:27:40.394Z,98.94
2022-10-22T15:30:08.033Z,99.58
2022-10-22T15:32:35.344Z,99.19
2022-10-22T15:35:02.425Z,99.29
2022-10-22T15:37:29.179Z,99.42
2022-10-22T15:39:56.018Z,99.35
2022-10-22T15:42:23.911Z,98.84
2022-10-22T15:44:57.967Z,99.38
2022-10-22T15:47:28.478Z,98.97
2022-10-22T15:49:55.689Z,99.33
2022-10-22T15:52:22.478Z,98.91
2022-10-22T15:54:49.250Z,98.83
2022-10-22T15:57:15.929Z,99.23
2022-10-22T15:59:42.642Z,98.90
2022-10-22T16:02:11.528Z,98.70
2022-10-22T16:04:38.924Z,98.72
2022-10-22T16:07:06.665Z,98.57
2022-10-22T16:09:33.379Z,98.50
2022-10-22T16:12:00.158Z,99.16
2022-10-22T16:14:28.700Z,99.04
2022-10-22T16:16:55.930Z,99.29
2022-10-22T16:19:24.064Z,98.85
2022-10-22T16:21:52.614Z,98.92
2022-10-22T16:24:20.097Z,99.19
2022-10-22T16:26:47.907Z,98.93
2022-10-22T16:29:15.161Z,99.18
2022-10-22T16:31:43.659Z,99.46
2022-10-22T16:34:10.592Z,99.25
2022-10-22T16:36:38.334Z,99.81
2022-10-22T16:39:05.941Z,99.33
2022-10-22T16:41:36.399Z,99.32
2022-10-22T16:44:06.644Z,99.52
2022-10-22T16:46:33.838Z,99.42
2022-10-22T16:49:00.603Z,99.70
2022-10-22T16:51:28.437Z,99.29
2022-10-22T16:53:57.223Z,100.00
2022-10-22T16:56:25.243Z,100.00
2022-10-22T16:58:54.318Z,100.00
2022-10-22T17:01:22.622Z,99.61
2022-10-22T17:03:49.362Z,100.00
2022-10-22T17:06:16.017Z,100.00
2022-10-22T17:08:43.172Z,100.00
2022-10-22T17:11:12.713Z,100.00
2022-10-22T17:13:42.351Z,99.65
2022-10-22T17:16:12.099Z,100.00
2022-10-22T17:18:40.812Z,100.00
2022-10-22T17:21:10.635Z,100.00
2022-10-22T17:23:37.574Z,100.00
2022-10-22T17:26:07.625Z,100.00
2022-10-22T17:28:38.603Z,100.00
2022-10-22T17:31:26.670Z,100.00
2022-10-22T17:33:55.682Z,100.00
2022-10-22T17:36:24.767Z,100.00
2022-10-22T17:38:54.157Z,100.00
2022-10-22T17:41:26.944Z,100.00
2022-10-22T17:43:53.804Z,100.00
2022-10-22T17:46:22.669Z,100.00
2022-10-22T17:48:53.694Z,100.00
2022-10-22T17:51:21.676Z,100.00
2022-10-22T17:53:50.765Z,100.00
2022-10-22T17:56:21.154Z,100.00
2022-10-22T17:58:48.449Z,100.00
2022-10-22T18:01:23.687Z,100.00
2022-10-22T18:03:51.998Z,100.00
2022-10-22T18:06:18.875Z,100.00
2022-10-22T18:08:45.862Z,100.00
2022-10-22T18:11:17.795Z,100.00
2022-10-22T18:13:44.984Z,100.00
2022-10-22T18:16:12.548Z,100.00
2022-10-22T18:18:39.366Z,100.00
2022-10-22T18:21:06.322Z,100.00
2022-10-22T18:23:33.456Z,100.00
2022-10-22T18:26:00.165Z,100.00
2022-10-22T18:28:26.837Z,100.00
2022-10-22T18:30:53.494Z,100.00
2022-10-22T18:33:23.990Z,100.00
2022-10-22T18:35:53.107Z,100.00
2022-10-22T18:38:22.915Z,100.00
2022-10-22T18:40:50.207Z,100.00
2022-10-22T18:43:18.128Z,100.00
2022-10-22T18:45:46.304Z,100.00
2022-10-22T18:48:15.170Z,100.00
2022-10-22T18:50:42.408Z,100.00
2022-10-22T18:53:09.231Z,100.00
2022-10-22T18:55:38.572Z,100.00
2022-10-22T18:58:05.723Z,100.00
2022-10-22T19:00:34.860Z,100.00
2022-10-22T19:03:03.185Z,100.00
2022-10-22T19:05:30.042Z,100.00
2022-10-22T19:07:56.717Z,100.00
2022-10-22T19:10:23.691Z,100.00
2022-10-22T19:12:50.358Z,100.00
2022-10-22T19:15:17.142Z,100.00
2022-10-22T19:17:43.953Z,100.00
2022-10-22T19:20:11.029Z,100.00
2022-10-22T19:22:37.755Z,100.00
2022-10-22T19:25:06.069Z,100.00
2022-10-22T19:27:36.536Z,100.00
2022-10-22T19:30:04.735Z,100.00
2022-10-22T19:32:31.638Z,100.00
2022-10-22T19:34:58.473Z,100.00
2022-10-22T19:37:25.245Z,100.00
2022-10-22T19:39:51.986Z,100.00
2022-10-22T19:42:18.730Z,100.00
2022-10-22T19:44:45.440Z,100.00
2022-10-22T19:47:12.250Z,100.00
2022-10-22T19:49:38.962Z,100.00
2022-10-22T19:52:05.906Z,100.00
2022-10-22T19:54:32.651Z,100.00
2022-10-22T19:56:59.336Z,100.00
2022-10-22T19:59:29.853Z,100.00
2022-10-22T20:01:58.167Z,100.00
2022-10-22T20:04:28.086Z,100.00
2022-10-22T20:06:55.178Z,100.00
2022-10-22T20:09:22.028Z,99.83
2022-10-22T20:11:48.762Z,100.00
2022-10-22T20:14:15.490Z,99.56
2022-10-22T20:16:42.941Z,99.97
2022-10-22T20:19:10.896Z,100.00
2022-10-22T20:21:37.884Z,100.00
2022-10-22T20:24:04.682Z,100.00
2022-10-22T20:26:31.765Z,100.00
2022-10-22T20:28:58.861Z,99.93
2022-10-22T20:31:28.610Z,99.97
2022-10-22T20:33:57.980Z,99.97
2022-10-22T20:36:25.248Z,100.00
2022-10-22T20:38:52.360Z,99.84
2022-10-22T20:41:22.408Z,100.00
2022-10-22T20:43:51.159Z,100.00
2022-10-22T20:46:26.940Z,99.85
2022-10-22T20:48:58.527Z,99.75
2022-10-22T20:51:25.287Z,99.75
2022-10-22T20:53:51.926Z,99.73
2022-10-22T20:56:19.896Z,100.00
2022-10-22T20:58:50.505Z,100.00
2022-10-22T21:01:21.872Z,99.78
2022-10-22T21:03:49.853Z,100.00
2022-10-22T21:06:17.511Z,99.62
2022-10-22T21:08:44.302Z,99.47
2022-10-22T21:11:11.009Z,99.30
2022-10-22T21:13:37.794Z,99.49
2022-10-22T21:16:12.779Z,99.47
2022-10-22T21:18:40.066Z,99.17
2022-10-22T21:21:08.296Z,98.84
2022-10-22T21:23:36.314Z,98.88
2022-10-22T21:26:03.740Z,98.74
2022-10-22T21:28:35.415Z,98.92
2022-10-22T21:31:08.310Z,97.97
2022-10-22T21:33:39.297Z,97.83
2022-10-22T21:36:07.365Z,97.63
2022-10-22T21:38:34.799Z,97.37
2022-10-22T21:41:13.438Z,97.30
2022-10-22T21:43:41.699Z,96.87
2022-10-22T21:46:20.069Z,96.96
2022-10-22T21:48:48.424Z,96.97
2022-10-22T21:51:19.582Z,97.19
2022-10-22T21:53:47.256Z,97.36
2022-10-22T21:56:16.799Z,97.04
2022-10-22T21:58:43.955Z,97.61
2022-10-22T22:01:11.264Z,97.24
2022-10-22T22:03:38.508Z,97.03
2022-10-22T22:06:06.762Z,97.59
2022-10-22T22:08:39.316Z,97.83
2022-10-22T22:11:07.935Z,97.56
2022-10-22T22:13:35.603Z,97.84
2022-10-22T22:16:07.582Z,98.23
2022-10-22T22:18:35.141Z,98.66
2022-10-22T22:21:06.081Z,98.63
2022-10-22T22:23:33.233Z,99.17
2022-10-22T22:48:59.753Z,98.32
2022-10-22T23:13:28.429Z,99.02
2022-10-22T23:16:21.631Z,98.70
2022-10-22T23:23:25.538Z,98.88
2022-10-22T23:26:17.149Z,98.46
2022-10-22T23:28:52.912Z,98.52
2022-10-22T23:31:21.819Z,98.32
2022-10-22T23:33:48.803Z,98.57
2022-10-22T23:36:15.687Z,98.20
2022-10-22T23:38:42.584Z,98.50
2022-10-22T23:41:09.665Z,98.36
2022-10-22T23:43:37.841Z,98.10
2022-10-22T23:46:09.483Z,98.00
2022-10-22T23:48:36.348Z,98.12
2022-10-22T23:51:12.071Z,97.90
2022-10-22T23:53:39.133Z,97.39
2022-10-22T23:56:08.853Z,97.81
2022-10-22T23:58:36.121Z,97.58
